createdAt,value
2022-09-09T00:00:25.234Z,99409.28
2022-09-09T00:03:18.840Z,99414.72
2022-09-09T00:06:12.287Z,99408.56
2022-09-09T00:09:05.781Z,99393.50
2022-09-09T00:11:57.345Z,99400.28
2022-09-09T00:14:50.911Z,99396.31
2022-09-09T00:17:43.182Z,99395.50
2022-09-09T00:20:36.827Z,99405.22
2022-09-09T00:23:27.753Z,99404.25
2022-09-09T00:26:20.948Z,99407.56
2022-09-09T00:29:24.729Z,99392.19
2022-09-09T00:32:15.680Z,99401.53
2022-09-09T00:35:06.441Z,99401.31
2022-09-09T00:38:02.005Z,99398.38
2022-09-09T00:40:53.119Z,99394.28
2022-09-09T00:43:42.551Z,99391.06
2022-09-09T00:47:02.900Z,99393.88
2022-09-09T00:50:01.662Z,99393.69
2022-09-09T00:52:56.671Z,99391.03
2022-09-09T00:55:50.362Z,99390.97
2022-09-09T00:58:38.790Z,99398.66
2022-09-09T01:01:27.178Z,99401.41
2022-09-09T01:04:18.613Z,99402.34
2022-09-09T01:07:14.368Z,99401.16
2022-09-09T01:10:08.990Z,99399.94
2022-09-09T01:12:58.727Z,99402.06
2022-09-09T01:15:48.109Z,99395.59
2022-09-09T01:18:38.437Z,99382.28
2022-09-09T01:21:34.995Z,99389.84
2022-09-09T01:24:27.840Z,99383.56
2022-09-09T01:27:26.573Z,99383.19
2022-09-09T01:30:16.826Z,99382.50
2022-09-09T01:33:05.540Z,99388.56
2022-09-09T01:35:57.398Z,99390.69
2022-09-09T01:38:49.914Z,99400.31
2022-09-09T01:41:39.881Z,99402.00
2022-09-09T01:44:33.400Z,99405.53
2022-09-09T01:47:23.048Z,99408.97
2022-09-09T01:50:22.611Z,99408.16
2022-09-09T01:53:11.393Z,99397.00
2022-09-09T01:56:09.925Z,99395.59
2022-09-09T01:59:13.383Z,99399.16
2022-09-09T02:02:12.679Z,99406.19
2022-09-09T02:05:17.131Z,99397.75
2022-09-09T02:08:08.319Z,99397.06
2022-09-09T02:11:09.098Z,99402.16
2022-09-09T02:14:05.175Z,99403.81
2022-09-09T02:16:56.241Z,99389.94
2022-09-09T02:19:51.616Z,99399.44
2022-09-09T02:22:50.998Z,99395.16
2022-09-09T02:25:41.126Z,99403.00
2022-09-09T02:28:38.744Z,99403.97
2022-09-09T02:31:27.333Z,99403.25
2022-09-09T02:34:21.995Z,99403.38
2022-09-09T02:37:12.117Z,99405.28
2022-09-09T02:40:03.398Z,99395.00
2022-09-09T02:42:53.100Z,99403.66
2022-09-09T02:45:46.265Z,99405.56
2022-09-09T02:48:40.770Z,99404.03
2022-09-09T02:51:34.142Z,99406.75
2022-09-09T02:54:29.312Z,99408.78
2022-09-09T02:57:21.654Z,99410.25
2022-09-09T03:00:13.488Z,99402.53
2022-09-09T03:03:02.180Z,99403.63
2022-09-09T03:05:50.664Z,99412.41
2022-09-09T03:08:39.162Z,99403.88
2022-09-09T03:11:29.778Z,99407.44
2022-09-09T03:14:22.121Z,99390.38
2022-09-09T03:17:11.122Z,99387.06
2022-09-09T03:20:07.074Z,99385.66
2022-09-09T03:22:55.490Z,99386.88
2022-09-09T03:25:49.892Z,99384.75
2022-09-09T03:28:43.042Z,99393.53
2022-09-09T03:31:32.072Z,99396.38
2022-09-09T03:34:21.150Z,99403.53
2022-09-09T03:37:09.558Z,99411.03
2022-09-09T03:39:58.274Z,99413.16
2022-09-09T03:42:46.841Z,99405.47
2022-09-09T03:45:36.895Z,99404.84
2022-09-09T03:48:25.900Z,99399.03
2022-09-09T03:51:16.021Z,99398.47
2022-09-09T03:54:06.066Z,99405.59
2022-09-09T03:56:54.596Z,99401.47
2022-09-09T03:59:44.613Z,99401.69
2022-09-09T04:02:34.441Z,99391.50
2022-09-09T04:05:22.836Z,99401.13
2022-09-09T04:08:12.373Z,99404.81
2022-09-09T04:11:02.671Z,99400.63
2022-09-09T04:13:51.491Z,99408.00
2022-09-09T04:16:44.198Z,99401.38
2022-09-09T04:19:34.087Z,99415.50
2022-09-09T04:22:23.409Z,99416.44
2022-09-09T04:25:11.864Z,99420.13
2022-09-09T04:28:00.365Z,99418.47
2022-09-09T04:30:49.461Z,99402.94
2022-09-09T04:33:40.276Z,99415.97
2022-09-09T04:36:31.506Z,99409.34
2022-09-09T04:39:22.591Z,99416.31
2022-09-09T04:42:11.040Z,99418.38
2022-09-09T04:44:59.706Z,99428.91
2022-09-09T04:47:48.214Z,99427.13
2022-09-09T04:50:36.654Z,99429.00
2022-09-09T04:53:27.296Z,99435.19
2022-09-09T04:56:17.598Z,99433.50
2022-09-09T04:59:13.356Z,99442.31
2022-09-09T05:02:08.522Z,99435.31
2022-09-09T05:04:57.077Z,99447.41
2022-09-09T05:07:46.886Z,99448.13
2022-09-09T05:10:39.240Z,99454.00
2022-09-09T05:13:28.392Z,99449.41
2022-09-09T05:16:16.856Z,99448.59
2022-09-09T05:19:08.958Z,99451.19
2022-09-09T05:22:05.916Z,99453.53
2022-09-09T05:25:02.499Z,99451.53
2022-09-09T05:27:52.283Z,99451.53
2022-09-09T05:30:41.266Z,99454.88
2022-09-09T05:33:29.693Z,99458.03
2022-09-09T05:36:20.248Z,99461.97
2022-09-09T05:39:12.964Z,99462.41
2022-09-09T05:42:02.589Z,99466.44
2022-09-09T05:44:55.246Z,99474.72
2022-09-09T05:47:43.810Z,99480.56
2022-09-09T05:50:35.307Z,99470.72
2022-09-09T05:53:23.787Z,99472.25
2022-09-09T05:56:15.180Z,99476.38
2022-09-09T05:59:05.390Z,99485.75
2022-09-09T06:01:55.524Z,99481.34
2022-09-09T06:04:50.508Z,99475.09
2022-09-09T06:07:42.920Z,99483.41
2022-09-09T06:10:31.643Z,99484.44
2022-09-09T06:13:19.994Z,99479.78
2022-09-09T06:16:09.358Z,99484.59
2022-09-09T06:18:59.625Z,99482.56
2022-09-09T06:21:51.164Z,99481.69
2022-09-09T06:24:39.616Z,99485.44
2022-09-09T06:27:29.699Z,99480.94
2022-09-09T06:30:19.309Z,99480.09
2022-09-09T06:33:07.843Z,99479.50
2022-09-09T06:35:58.063Z,99473.97
2022-09-09T06:38:47.559Z,99463.13
2022-09-09T06:41:37.678Z,99461.47
2022-09-09T06:44:32.219Z,99464.94
2022-09-09T06:47:25.545Z,99461.50
2022-09-09T06:50:13.951Z,99456.91
2022-09-09T06:53:03.901Z,99454.75
2022-09-09T06:55:52.648Z,99464.75
2022-09-09T06:58:43.935Z,99475.06
2022-09-09T07:01:36.621Z,99477.13
2022-09-09T07:04:28.322Z,99481.41
2022-09-09T07:07:16.755Z,99468.25
2022-09-09T07:10:08.538Z,99474.16
2022-09-09T07:12:58.554Z,99479.72
2022-09-09T07:15:47.801Z,99469.97
2022-09-09T07:18:36.639Z,99471.75
2022-09-09T07:21:25.430Z,99482.50
2022-09-09T07:24:14.115Z,99476.31
2022-09-09T07:27:06.776Z,99461.94
2022-09-09T07:29:55.790Z,99468.75
2022-09-09T07:32:44.270Z,99470.34
2022-09-09T07:35:32.793Z,99475.91
2022-09-09T07:38:21.288Z,99471.66
2022-09-09T07:41:12.768Z,99473.59
2022-09-09T07:44:06.126Z,99483.91
2022-09-09T07:46:54.787Z,99489.44
2022-09-09T07:49:50.689Z,99484.22
2022-09-09T07:52:43.518Z,99484.06
2022-09-09T07:55:33.089Z,99489.97
2022-09-09T07:58:21.597Z,99485.41
2022-09-09T08:01:13.830Z,99495.78
2022-09-09T08:04:04.153Z,99505.88
2022-09-09T08:06:55.107Z,99493.03
2022-09-09T08:09:45.221Z,99502.00
2022-09-09T08:13:14.665Z,99503.28
2022-09-09T08:16:09.420Z,99500.03
2022-09-09T08:18:59.895Z,99499.50
2022-09-09T08:21:49.950Z,99503.81
2022-09-09T08:24:38.714Z,99505.88
2022-09-09T08:27:27.430Z,99507.25
2022-09-09T08:30:17.348Z,99522.88
2022-09-09T08:33:06.273Z,99511.72
2022-09-09T08:35:57.283Z,99520.28
2022-09-09T08:38:46.304Z,99515.16
2022-09-09T08:42:07.515Z,99513.06
2022-09-09T08:45:22.715Z,99523.50
2022-09-09T08:48:20.844Z,99514.66
2022-09-09T08:51:12.117Z,99514.66
2022-09-09T08:54:03.191Z,99520.72
2022-09-09T08:56:51.908Z,99516.78
2022-09-09T08:59:40.327Z,99514.03
2022-09-09T09:02:33.694Z,99516.94
2022-09-09T09:05:27.076Z,99517.63
2022-09-09T09:08:22.591Z,99525.25
2022-09-09T09:11:11.093Z,99527.56
2022-09-09T09:14:02.699Z,99518.72
2022-09-09T09:16:54.616Z,99539.03
2022-09-09T09:19:44.160Z,99529.63
2022-09-09T09:22:39.262Z,99513.63
2022-09-09T09:25:34.073Z,99505.31
2022-09-09T09:28:25.334Z,99502.53
2022-09-09T09:31:18.590Z,99515.69
2022-09-09T09:34:11.164Z,99513.25
2022-09-09T09:37:02.673Z,99510.31
2022-09-09T09:40:08.786Z,99514.66
2022-09-09T09:43:00.362Z,99501.44
2022-09-09T09:46:06.990Z,99506.97
2022-09-09T09:49:01.816Z,99504.53
2022-09-09T09:51:51.110Z,99494.91
2022-09-09T09:54:40.815Z,99488.50
2022-09-09T09:57:32.766Z,99492.59
2022-09-09T10:00:27.326Z,99500.69
2022-09-09T10:03:27.518Z,99513.72
2022-09-09T10:06:16.765Z,99511.47
2022-09-09T10:09:08.666Z,99520.06
2022-09-09T10:12:04.736Z,99523.84
2022-09-09T10:14:57.902Z,99532.53
2022-09-09T10:17:56.881Z,99534.59
2022-09-09T10:20:47.873Z,99548.41
2022-09-09T10:23:54.928Z,99537.91
2022-09-09T10:26:48.296Z,99544.50
2022-09-09T10:29:51.475Z,99541.97
2022-09-09T10:32:50.680Z,99521.00
2022-09-09T10:35:43.563Z,99512.25
2022-09-09T10:38:34.429Z,99509.75
2022-09-09T10:41:33.339Z,99496.25
2022-09-09T10:44:40.665Z,99498.44
2022-09-09T10:48:12.554Z,99493.47
2022-09-09T10:51:15.536Z,99495.91
2022-09-09T10:54:19.920Z,99488.13
2022-09-09T10:57:15.719Z,99470.94
2022-09-09T11:00:07.052Z,99468.13
2022-09-09T11:02:58.215Z,99467.44
2022-09-09T11:05:48.422Z,99452.75
2022-09-09T11:08:40.605Z,99443.69
2022-09-09T11:11:32.807Z,99442.59
2022-09-09T11:14:25.467Z,99448.56
2022-09-09T11:17:16.089Z,99430.41
2022-09-09T11:20:04.976Z,99445.22
2022-09-09T11:22:55.037Z,99449.16
2022-09-09T11:25:46.239Z,99448.50
2022-09-09T11:28:45.598Z,99440.28
2022-09-09T11:31:46.606Z,99433.53
2022-09-09T11:34:41.779Z,99453.47
2022-09-09T11:37:56.144Z,99445.56
2022-09-09T11:40:45.944Z,99448.19
2022-09-09T11:43:39.436Z,99453.66
2022-09-09T11:46:36.357Z,99460.19
2022-09-09T11:49:29.986Z,99441.84
2022-09-09T11:52:26.584Z,99466.13
2022-09-09T11:55:27.966Z,99449.94
2022-09-09T11:58:20.304Z,99455.69
2022-09-09T12:01:32.031Z,99451.03
2022-09-09T12:04:35.032Z,99466.09
2022-09-09T12:07:31.362Z,99450.63
2022-09-09T12:10:24.484Z,99464.03
2022-09-09T12:13:22.870Z,99452.63
2022-09-09T12:16:34.858Z,99460.03
2022-09-09T12:19:26.473Z,99462.91
2022-09-09T12:22:23.118Z,99472.69
2022-09-09T12:25:23.173Z,99470.28
2022-09-09T12:28:14.267Z,99481.41
2022-09-09T12:31:08.903Z,99481.47
2022-09-09T12:33:57.392Z,99472.97
2022-09-09T12:36:51.847Z,99478.28
2022-09-09T12:39:46.623Z,99498.59
2022-09-09T12:42:39.152Z,99514.84
2022-09-09T12:45:32.256Z,99509.19
2022-09-09T12:48:22.205Z,99523.00
2022-09-09T12:51:20.478Z,99531.00
2022-09-09T12:54:15.006Z,99540.84
2022-09-09T12:57:04.295Z,99523.88
2022-09-09T12:59:53.733Z,99511.06
2022-09-09T13:02:52.699Z,99495.06
2022-09-09T13:05:44.308Z,99487.53
2022-09-09T13:08:32.713Z,99471.56
2022-09-09T13:11:23.412Z,99473.34
2022-09-09T13:14:21.210Z,99470.47
2022-09-09T13:17:19.507Z,99461.75
2022-09-09T13:20:09.476Z,99475.28
2022-09-09T13:22:59.384Z,99474.88
2022-09-09T13:25:56.059Z,99481.88
2022-09-09T13:28:46.325Z,99500.06
2022-09-09T13:31:37.889Z,99502.09
2022-09-09T13:34:29.889Z,99526.00
2022-09-09T13:37:24.428Z,99498.09
2022-09-09T13:40:20.436Z,99488.22
2022-09-09T13:43:16.472Z,99488.59
2022-09-09T13:46:07.074Z,99515.31
2022-09-09T13:48:59.159Z,99503.03
2022-09-09T13:51:48.911Z,99504.59
2022-09-09T13:54:37.253Z,99510.75
2022-09-09T13:57:27.201Z,99508.44
2022-09-09T14:00:16.778Z,99507.84
2022-09-09T14:03:05.409Z,99499.06
2022-09-09T14:05:55.217Z,99491.25
2022-09-09T14:08:43.679Z,99482.72
2022-09-09T14:11:32.077Z,99477.50
2022-09-09T14:14:21.820Z,99468.28
2022-09-09T14:17:10.170Z,99462.03
2022-09-09T14:19:58.606Z,99459.50
2022-09-09T14:22:46.985Z,99445.09
2022-09-09T14:25:35.452Z,99445.69
2022-09-09T14:28:45.132Z,99445.72
2022-09-09T14:31:33.644Z,99436.66
2022-09-09T14:34:22.018Z,99427.97
2022-09-09T14:37:10.400Z,99434.88
2022-09-09T14:39:58.804Z,99436.19
2022-09-09T14:42:47.251Z,99425.03
2022-09-09T14:45:37.343Z,99426.72
2022-09-09T14:48:27.174Z,99431.22
2022-09-09T14:51:17.278Z,99429.03
2022-09-09T14:54:05.942Z,99427.69
2022-09-09T14:56:54.397Z,99429.03
2022-09-09T14:59:42.755Z,99427.09
2022-09-09T15:02:32.303Z,99429.13
2022-09-09T15:05:22.091Z,99438.63
2022-09-09T15:08:10.433Z,99448.53
2022-09-09T15:11:02.351Z,99444.84
2022-09-09T15:13:53.075Z,99442.72
2022-09-09T15:16:41.855Z,99441.41
2022-09-09T15:19:30.217Z,99438.47
2022-09-09T15:22:20.048Z,99432.19
2022-09-09T15:25:09.623Z,99439.94
2022-09-09T15:27:58.217Z,99454.03
2022-09-09T15:30:49.569Z,99463.16
2022-09-09T15:33:38.773Z,99462.84
2022-09-09T15:36:28.094Z,99470.56
2022-09-09T15:39:19.205Z,99486.25
2022-09-09T15:42:08.003Z,99486.78
2022-09-09T15:44:57.740Z,99485.34
2022-09-09T15:47:46.234Z,99483.69
2022-09-09T15:50:35.635Z,99482.94
2022-09-09T15:53:24.072Z,99495.38
2022-09-09T15:56:13.798Z,99502.22
2022-09-09T15:59:03.145Z,99512.19
2022-09-09T16:01:52.149Z,99510.59
2022-09-09T16:04:40.783Z,99520.03
2022-09-09T16:07:29.137Z,99508.72
2022-09-09T16:10:17.569Z,99524.31
2022-09-09T16:13:07.267Z,99523.13
2022-09-09T16:15:56.445Z,99517.72
2022-09-09T16:18:47.194Z,99515.16
2022-09-09T16:21:38.533Z,99509.72
2022-09-09T16:24:27.670Z,99510.31
2022-09-09T16:27:16.152Z,99518.66
2022-09-09T16:30:07.377Z,99509.09
2022-09-09T16:32:55.780Z,99510.97
2022-09-09T16:35:44.140Z,99507.06
2022-09-09T16:38:32.708Z,99515.03
2022-09-09T16:41:21.064Z,99516.94
2022-09-09T16:44:10.775Z,99518.03
2022-09-09T16:47:01.227Z,99519.22
2022-09-09T16:49:49.778Z,99527.41
2022-09-09T16:52:38.092Z,99518.88
2022-09-09T16:55:27.647Z,99519.56
2022-09-09T16:58:15.972Z,99521.47
2022-09-09T17:01:04.583Z,99506.28
2022-09-09T17:04:00.656Z,99513.19
2022-09-09T17:06:50.195Z,99508.41
2022-09-09T17:09:38.522Z,99518.88
2022-09-09T17:12:26.864Z,99504.41
2022-09-09T17:15:15.998Z,99502.97
2022-09-09T17:18:04.423Z,99500.84
2022-09-09T17:20:54.545Z,99497.97
2022-09-09T17:23:43.226Z,99497.03
2022-09-09T17:26:33.980Z,99498.31
2022-09-09T17:29:22.357Z,99504.09
2022-09-09T17:32:10.712Z,99509.03
2022-09-09T17:34:59.081Z,99516.81
2022-09-09T17:37:48.918Z,99504.84
2022-09-09T17:40:37.257Z,99504.22
2022-09-09T17:43:25.617Z,99503.34
2022-09-09T17:46:15.545Z,99511.22
2022-09-09T17:49:05.715Z,99513.78
2022-09-09T17:51:54.866Z,99502.16
2022-09-09T17:54:44.535Z,99509.69
2022-09-09T17:57:33.039Z,99513.63
2022-09-09T18:00:21.503Z,99519.06
2022-09-09T18:03:09.896Z,99528.75
2022-09-09T18:06:03.098Z,99530.63
2022-09-09T18:08:54.500Z,99552.91
2022-09-09T18:11:45.352Z,99560.19
2022-09-09T18:14:34.967Z,99586.91
2022-09-09T18:17:23.309Z,99584.53
2022-09-09T18:20:12.073Z,99585.66
2022-09-09T18:23:00.447Z,99590.22
2022-09-09T18:25:48.842Z,99587.69
2022-09-09T18:28:39.514Z,99595.66
2022-09-09T18:31:28.792Z,99617.59
2022-09-09T18:34:18.567Z,99620.50
2022-09-09T18:37:08.386Z,99622.75
2022-09-09T18:39:56.748Z,99626.69
2022-09-09T18:42:45.217Z,99628.13
2022-09-09T18:45:38.699Z,99643.66
2022-09-09T18:48:27.062Z,99642.94
2022-09-09T18:51:17.174Z,99642.50
2022-09-09T18:54:07.813Z,99639.22
2022-09-09T18:56:56.115Z,99635.53
2022-09-09T18:59:44.481Z,99637.44
2022-09-09T19:02:34.104Z,99641.91
2022-09-09T19:05:22.493Z,99640.47
2022-09-09T19:08:10.813Z,99649.47
2022-09-09T19:11:02.473Z,99639.59
2022-09-09T19:13:51.640Z,99628.78
2022-09-09T19:16:40.515Z,99631.84
2022-09-09T19:19:32.220Z,99629.69
2022-09-09T19:22:20.588Z,99621.34
2022-09-09T19:25:09.196Z,99629.63
2022-09-09T19:27:58.372Z,99622.25
2022-09-09T19:30:47.704Z,99614.88
2022-09-09T19:33:36.312Z,99620.84
2022-09-09T19:36:27.572Z,99633.44
2022-09-09T19:39:16.391Z,99642.31
2022-09-09T19:42:04.863Z,99645.63
2022-09-09T19:44:53.168Z,99642.69
2022-09-09T19:47:42.745Z,99635.84
2022-09-09T19:50:31.104Z,99629.19
2022-09-09T19:53:20.931Z,99631.88
2022-09-09T19:56:10.220Z,99626.66
2022-09-09T19:58:58.637Z,99638.66
2022-09-09T20:01:47.066Z,99635.19
2022-09-09T20:04:36.198Z,99640.41
2022-09-09T20:07:24.571Z,99646.66
2022-09-09T20:10:14.334Z,99646.88
2022-09-09T20:13:02.652Z,99646.47
2022-09-09T20:16:00.352Z,99633.16
2022-09-09T20:18:50.813Z,99633.47
2022-09-09T20:21:42.824Z,99648.66
2022-09-09T20:24:36.900Z,99649.94
2022-09-09T20:27:27.566Z,99658.75
2022-09-09T20:30:16.009Z,99661.47
2022-09-09T20:33:04.878Z,99658.13
2022-09-09T20:35:53.858Z,99661.56
2022-09-09T20:38:46.377Z,99658.56
2022-09-09T20:41:36.083Z,99659.78
2022-09-09T20:44:26.270Z,99662.91
2022-09-09T20:47:14.613Z,99645.09
2022-09-09T20:50:02.948Z,99648.44
2022-09-09T20:52:52.341Z,99641.47
2022-09-09T20:55:40.706Z,99643.34
2022-09-09T20:58:33.526Z,99645.44
2022-09-09T21:01:23.435Z,99651.78
2022-09-09T21:04:12.379Z,99645.03
2022-09-09T21:07:02.532Z,99651.25
2022-09-09T21:09:50.931Z,99651.47
2022-09-09T21:12:39.397Z,99646.47
2022-09-09T21:15:27.709Z,99646.69
2022-09-09T21:18:17.541Z,99642.22
2022-09-09T21:21:05.901Z,99634.00
2022-09-09T21:23:55.872Z,99630.13
2022-09-09T21:26:44.230Z,99629.72
2022-09-09T21:29:32.598Z,99637.31
2022-09-09T21:32:21.367Z,99634.63
2022-09-09T21:35:12.054Z,99630.22
2022-09-09T21:38:00.379Z,99633.47
2022-09-09T21:40:50.116Z,99617.53
2022-09-09T21:43:38.428Z,99623.47
2022-09-09T21:46:28.208Z,99616.25
2022-09-09T21:49:16.594Z,99618.66
2022-09-09T21:52:06.336Z,99624.63
2022-09-09T21:54:54.683Z,99626.78
2022-09-09T21:57:43.052Z,99615.03
2022-09-09T22:00:31.629Z,99610.31
2022-09-09T22:03:19.950Z,99618.63
2022-09-09T22:06:08.857Z,99615.81
2022-09-09T22:08:59.074Z,99626.72
2022-09-09T22:11:47.461Z,99613.47
2022-09-09T22:14:36.655Z,99602.88
2022-09-09T22:17:25.441Z,99609.28
2022-09-09T22:20:13.918Z,99607.41
2022-09-09T22:23:02.491Z,99608.13
2022-09-09T22:25:53.714Z,99609.44
2022-09-09T22:28:42.042Z,99601.53
2022-09-09T22:31:30.520Z,99613.59
2022-09-09T22:34:20.939Z,99608.19
2022-09-09T22:37:09.984Z,99619.09
2022-09-09T22:39:58.340Z,99612.00
2022-09-09T22:42:52.423Z,99622.19
2022-09-09T22:45:41.981Z,99622.81
2022-09-09T22:48:33.486Z,99626.03
2022-09-09T22:51:21.835Z,99608.50
2022-09-09T22:54:10.218Z,99612.78
2022-09-09T22:56:58.575Z,99608.28
2022-09-09T22:59:48.266Z,99610.06
2022-09-09T23:02:40.688Z,99610.16
2022-09-09T23:05:30.124Z,99603.28
2022-09-09T23:08:18.950Z,99603.28
2022-09-09T23:11:10.631Z,99606.84
2022-09-09T23:14:00.535Z,99605.19
2022-09-09T23:16:52.577Z,99607.06
2022-09-09T23:19:41.486Z,99628.25
2022-09-09T23:22:29.910Z,99626.69
2022-09-09T23:25:18.447Z,99621.47
2022-09-09T23:28:06.820Z,99623.38
2022-09-09T23:30:55.672Z,99630.47
2022-09-09T23:33:45.716Z,99627.25
2022-09-09T23:36:34.136Z,99629.75
2022-09-09T23:39:23.156Z,99627.16
2022-09-09T23:42:12.126Z,99628.31
2022-09-09T23:45:03.270Z,99615.47
2022-09-09T23:47:51.750Z,99626.44
2022-09-09T23:50:41.490Z,99628.19
2022-09-09T23:53:29.850Z,99625.69
2022-09-09T23:56:20.280Z,99632.69
2022-09-09T23:59:09.056Z,99620.50
